TimePDT,TemperatureF,Dew PointF,Humidity,Sea Level PressureIn,VisibilityMPH,Wind Direction,Wind SpeedMPH,Gust SpeedMPH,PrecipitationIn,Events,Conditions,WindDirDegrees,DateUTC
12:52 AM,66.9,46.9,49,29.96,10.0,West,6.9,-,N/A,,Clear,260,2013-08-18 07:52:00
1:52 AM,64.0,48.0,56,29.97,10.0,Calm,Calm,-,N/A,,Clear,0,2013-08-18 08:52:00
2:52 AM,63.0,50.0,63,29.97,10.0,WSW,6.9,-,N/A,,Clear,250,2013-08-18 09:52:00
3:52 AM,64.0,48.9,58,29.99,10.0,SW,3.5,-,N/A,,Clear,220,2013-08-18 10:52:00
4:52 AM,63.0,52.0,67,29.99,10.0,WSW,3.5,-,N/A,,Clear,240,2013-08-18 11:52:00
5:52 AM,57.0,48.9,74,30.01,10.0,SE,3.5,-,N/A,,Clear,140,2013-08-18 12:52:00
6:52 AM,60.1,51.1,72,30.03,10.0,ESE,3.5,-,N/A,,Clear,110,2013-08-18 13:52:00
7:52 AM,64.9,52.0,63,30.04,10.0,Calm,Calm,-,N/A,,Clear,0,2013-08-18 14:52:00
8:52 AM,70.0,50.0,49,30.04,10.0,Calm,Calm,-,N/A,,Clear,0,2013-08-18 15:52:00
9:52 AM,75.0,48.9,40,30.04,10.0,Calm,Calm,-,N/A,,Clear,0,2013-08-18 16:52:00
10:52 AM,79.0,48.0,34,30.03,10.0,SW,4.6,-,N/A,,Clear,230,2013-08-18 17:52:00
11:52 AM,81.0,46.9,30,30.02,10.0,SSW,6.9,-,N/A,,Clear,210,2013-08-18 18:52:00
12:52 PM,84.0,48.0,28,30.01,10.0,SSW,5.8,-,N/A,,Clear,200,2013-08-18 19:52:00
1:52 PM,88.0,45.0,22,29.99,10.0,SW,11.5,19.6,N/A,,Clear,230,2013-08-18 20:52:00
2:52 PM,88.0,46.0,23,29.97,10.0,South,15.0,20.7,N/A,,Clear,180,2013-08-18 21:52:00
3:52 PM,89.1,45.0,22,29.95,10.0,SSW,9.2,17.3,N/A,,Clear,200,2013-08-18 22:52:00
4:52 PM,89.1,44.1,21,29.94,10.0,South,11.5,-,N/A,,Clear,180,2013-08-18 23:52:00
5:52 PM,89.1,45.0,22,29.93,10.0,South,10.4,-,N/A,,Clear,180,2013-08-19 00:52:00
6:52 PM,87.1,46.0,24,29.91,10.0,SSE,8.1,-,N/A,,Clear,160,2013-08-19 01:52:00
7:52 PM,81.0,52.0,36,29.91,10.0,SSE,6.9,-,N/A,,Clear,160,2013-08-19 02:52:00
8:52 PM,80.1,53.1,39,29.92,10.0,SSW,5.8,-,N/A,,Clear,210,2013-08-19 03:52:00
9:52 PM,75.0,48.0,38,29.93,10.0,North,8.1,-,N/A,,Clear,350,2013-08-19 04:52:00
10:52 PM,71.1,46.9,42,29.94,10.0,NNW,5.8,-,N/A,,Clear,340,2013-08-19 05:52:00
11:52 PM,71.1,46.0,41,29.94,10.0,West,3.5,-,N/A,,Clear,270,2013-08-19 06:52:00